sensor_id;sensor_type;location;lat;lon;timestamp;P1;durP1;ratioP1;P2;durP2;ratioP2
16391;SDS011;8305;-33.882;151.134;2023-12-14T00:00:37;2.63;;;2.20;;
16391;SDS011;8305;-33.882;151.134;2023-12-14T00:03:10;5.15;;;2.47;;
16391;SDS011;8305;-33.882;151.134;2023-12-14T00:05:42;3.17;;;2.20;;
16391;SDS011;8305;-33.882;151.134;2023-12-14T00:08:13;52.17;;;36.63;;
16391;SDS011;8305;-33.882;151.134;2023-12-14T00:10:44;15.15;;;10.68;;
16391;SDS011;8305;-33.882;151.134;2023-12-14T00:13:16;7.45;;;5.47;;
16391;SDS011;8305;-33.882;151.134;2023-12-14T00:15:47;6.85;;;5.22;;
16391;SDS011;8305;-33.882;151.134;2023-12-14T00:18:23;9.15;;;4.95;;
16391;SDS011;8305;-33.882;151.134;2023-12-14T00:20:54;4.68;;;3.05;;
16391;SDS011;8305;-33.882;151.134;2023-12-14T00:23:31;4.43;;;2.80;;
16391;SDS011;8305;-33.882;151.134;2023-12-14T00:26:03;5.53;;;2.80;;
16391;SDS011;8305;-33.882;151.134;2023-12-14T00:28:34;3.45;;;2.17;;
16391;SDS011;8305;-33.882;151.134;2023-12-14T00:31:06;7.38;;;2.20;;
16391;SDS011;8305;-33.882;151.134;2023-12-14T00:33:39;6.38;;;2.50;;
16391;SDS011;8305;-33.882;151.134;2023-12-14T00:36:10;4.03;;;2.13;;
16391;SDS011;8305;-33.882;151.134;2023-12-14T00:38:48;4.00;;;2.05;;
16391;SDS011;8305;-33.882;151.134;2023-12-14T00:41:19;4.78;;;2.17;;
16391;SDS011;8305;-33.882;151.134;2023-12-14T00:43:50;3.20;;;2.08;;
16391;SDS011;8305;-33.882;151.134;2023-12-14T00:46:21;4.68;;;2.00;;
16391;SDS011;8305;-33.882;151.134;2023-12-14T00:48:54;102.45;;;82.03;;
16391;SDS011;8305;-33.882;151.134;2023-12-14T00:51:25;9.32;;;6.22;;
16391;SDS011;8305;-33.882;151.134;2023-12-14T00:53:57;6.60;;;3.55;;
16391;SDS011;8305;-33.882;151.134;2023-12-14T00:56:28;5.20;;;3.10;;
16391;SDS011;8305;-33.882;151.134;2023-12-14T00:58:58;5.15;;;2.17;;
16391;SDS011;8305;-33.882;151.134;2023-12-14T01:01:29;4.82;;;2.50;;
16391;SDS011;8305;-33.882;151.134;2023-12-14T01:04:02;5.30;;;2.47;;
16391;SDS011;8305;-33.882;151.134;2023-12-14T01:06:35;3.75;;;2.22;;
16391;SDS011;8305;-33.882;151.134;2023-12-14T01:09:06;5.35;;;2.10;;
16391;SDS011;8305;-33.882;151.134;2023-12-14T01:11:37;4.88;;;2.50;;
16391;SDS011;8305;-33.882;151.134;2023-12-14T01:14:08;6.13;;;2.47;;
16391;SDS011;8305;-33.882;151.134;2023-12-14T01:16:39;5.47;;;2.25;;
16391;SDS011;8305;-33.882;151.134;2023-12-14T01:19:12;4.15;;;1.95;;
16391;SDS011;8305;-33.882;151.134;2023-12-14T01:21:43;3.20;;;1.85;;
16391;SDS011;8305;-33.882;151.134;2023-12-14T01:24:14;2.65;;;1.67;;
16391;SDS011;8305;-33.882;151.134;2023-12-14T01:26:45;5.20;;;1.83;;
16391;SDS011;8305;-33.882;151.134;2023-12-14T01:29:17;4.03;;;1.67;;
16391;SDS011;8305;-33.882;151.134;2023-12-14T01:31:48;4.20;;;1.73;;
16391;SDS011;8305;-33.882;151.134;2023-12-14T01:34:21;4.43;;;2.03;;
16391;SDS011;8305;-33.882;151.134;2023-12-14T01:36:53;1.85;;;1.60;;
16391;SDS011;8305;-33.882;151.134;2023-12-14T01:39:24;7.00;;;1.90;;
16391;SDS011;8305;-33.882;151.134;2023-12-14T01:41:55;4.40;;;1.55;;
16391;SDS011;8305;-33.882;151.134;2023-12-14T01:44:27;4.28;;;1.60;;
16391;SDS011;8305;-33.882;151.134;2023-12-14T01:47:00;4.20;;;1.80;;
16391;SDS011;8305;-33.882;151.134;2023-12-14T01:49:33;3.75;;;1.60;;
16391;SDS011;8305;-33.882;151.134;2023-12-14T01:52:04;3.22;;;1.80;;
16391;SDS011;8305;-33.882;151.134;2023-12-14T01:54:36;2.92;;;1.52;;
16391;SDS011;8305;-33.882;151.134;2023-12-14T01:57:07;3.20;;;1.67;;
16391;SDS011;8305;-33.882;151.134;2023-12-14T01:59:38;3.47;;;1.35;;
16391;SDS011;8305;-33.882;151.134;2023-12-14T02:02:09;5.22;;;1.70;;
16391;SDS011;8305;-33.882;151.134;2023-12-14T02:04:43;2.75;;;1.67;;
16391;SDS011;8305;-33.882;151.134;2023-12-14T02:07:14;4.47;;;1.80;;
16391;SDS011;8305;-33.882;151.134;2023-12-14T02:09:45;5.53;;;2.20;;
16391;SDS011;8305;-33.882;151.134;2023-12-14T02:12:16;3.83;;;1.75;;
16391;SDS011;8305;-33.882;151.134;2023-12-14T02:14:48;1.75;;;1.48;;
16391;SDS011;8305;-33.882;151.134;2023-12-14T02:17:20;3.70;;;1.80;;
16391;SDS011;8305;-33.882;151.134;2023-12-14T02:19:53;3.55;;;1.67;;
16391;SDS011;8305;-33.882;151.134;2023-12-14T02:22:24;3.13;;;1.40;;
16391;SDS011;8305;-33.882;151.134;2023-12-14T02:24:57;4.60;;;1.38;;
16391;SDS011;8305;-33.882;151.134;2023-12-14T02:27:30;2.55;;;1.42;;
16391;SDS011;8305;-33.882;151.134;2023-12-14T02:30:01;3.13;;;1.10;;
16391;SDS011;8305;-33.882;151.134;2023-12-14T02:32:32;1.90;;;0.90;;
16391;SDS011;8305;-33.882;151.134;2023-12-14T02:35:04;2.50;;;1.00;;
16391;SDS011;8305;-33.882;151.134;2023-12-14T02:37:36;2.05;;;1.00;;
16391;SDS011;8305;-33.882;151.134;2023-12-14T02:40:10;3.15;;;1.10;;
16391;SDS011;8305;-33.882;151.134;2023-12-14T02:42:41;1.83;;;0.85;;
16391;SDS011;8305;-33.882;151.134;2023-12-14T02:45:12;4.63;;;1.23;;
16391;SDS011;8305;-33.882;151.134;2023-12-14T02:47:43;4.07;;;1.00;;
16391;SDS011;8305;-33.882;151.134;2023-12-14T02:50:16;2.38;;;0.90;;
16391;SDS011;8305;-33.882;151.134;2023-12-14T02:52:46;2.85;;;1.20;;
16391;SDS011;8305;-33.882;151.134;2023-12-14T02:55:19;1.08;;;0.80;;
16391;SDS011;8305;-33.882;151.134;2023-12-14T02:57:50;2.72;;;0.90;;
16391;SDS011;8305;-33.882;151.134;2023-12-14T03:00:21;4.75;;;0.90;;
16391;SDS011;8305;-33.882;151.134;2023-12-14T03:02:52;2.67;;;1.10;;
16391;SDS011;8305;-33.882;151.134;2023-12-14T03:05:22;2.85;;;1.20;;
16391;SDS011;8305;-33.882;151.134;2023-12-14T03:07:53;1.52;;;0.80;;
16391;SDS011;8305;-33.882;151.134;2023-12-14T03:10:26;1.88;;;0.98;;
16391;SDS011;8305;-33.882;151.134;2023-12-14T03:12:57;4.47;;;1.20;;
16391;SDS011;8305;-33.882;151.134;2023-12-14T03:15:27;1.38;;;0.90;;
16391;SDS011;8305;-33.882;151.134;2023-12-14T03:17:58;2.08;;;0.80;;
16391;SDS011;8305;-33.882;151.134;2023-12-14T03:20:29;2.50;;;1.10;;
16391;SDS011;8305;-33.882;151.134;2023-12-14T03:23:00;4.32;;;1.25;;
16391;SDS011;8305;-33.882;151.134;2023-12-14T03:25:33;2.83;;;1.10;;
16391;SDS011;8305;-33.882;151.134;2023-12-14T03:28:04;2.65;;;1.10;;
16391;SDS011;8305;-33.882;151.134;2023-12-14T03:30:35;1.40;;;0.85;;
16391;SDS011;8305;-33.882;151.134;2023-12-14T03:33:06;2.95;;;1.00;;
16391;SDS011;8305;-33.882;151.134;2023-12-14T03:35:37;2.25;;;1.00;;
16391;SDS011;8305;-33.882;151.134;2023-12-14T03:38:08;4.97;;;1.10;;
16391;SDS011;8305;-33.882;151.134;2023-12-14T03:40:41;1.60;;;0.90;;
16391;SDS011;8305;-33.882;151.134;2023-12-14T03:43:12;1.88;;;1.00;;
16391;SDS011;8305;-33.882;151.134;2023-12-14T03:45:43;2.10;;;1.17;;
16391;SDS011;8305;-33.882;151.134;2023-12-14T03:48:14;1.92;;;1.10;;
16391;SDS011;8305;-33.882;151.134;2023-12-14T03:50:44;3.95;;;1.10;;
16391;SDS011;8305;-33.882;151.134;2023-12-14T03:53:14;3.10;;;0.98;;
16391;SDS011;8305;-33.882;151.134;2023-12-14T03:55:47;1.33;;;0.85;;
16391;SDS011;8305;-33.882;151.134;2023-12-14T03:58:17;5.47;;;1.00;;
16391;SDS011;8305;-33.882;151.134;2023-12-14T04:00:47;3.42;;;1.08;;
16391;SDS011;8305;-33.882;151.134;2023-12-14T04:03:17;1.95;;;0.82;;
16391;SDS011;8305;-33.882;151.134;2023-12-14T04:05:48;3.20;;;1.00;;
16391;SDS011;8305;-33.882;151.134;2023-12-14T04:08:18;3.78;;;1.30;;
16391;SDS011;8305;-33.882;151.134;2023-12-14T04:10:50;3.50;;;1.00;;
16391;SDS011;8305;-33.882;151.134;2023-12-14T04:13:21;2.70;;;0.90;;
16391;SDS011;8305;-33.882;151.134;2023-12-14T04:15:52;1.25;;;1.05;;
16391;SDS011;8305;-33.882;151.134;2023-12-14T04:18:23;1.58;;;0.82;;
16391;SDS011;8305;-33.882;151.134;2023-12-14T04:20:54;4.47;;;1.10;;
16391;SDS011;8305;-33.882;151.134;2023-12-14T04:23:25;3.10;;;0.80;;
16391;SDS011;8305;-33.882;151.134;2023-12-14T04:25:57;2.45;;;0.98;;
16391;SDS011;8305;-33.882;151.134;2023-12-14T04:28:28;2.95;;;0.90;;
16391;SDS011;8305;-33.882;151.134;2023-12-14T04:30:59;1.85;;;0.80;;
16391;SDS011;8305;-33.882;151.134;2023-12-14T04:33:30;0.98;;;0.63;;
16391;SDS011;8305;-33.882;151.134;2023-12-14T04:36:01;6.75;;;1.05;;
16391;SDS011;8305;-33.882;151.134;2023-12-14T04:38:32;2.47;;;0.90;;
16391;SDS011;8305;-33.882;151.134;2023-12-14T04:41:04;1.00;;;0.80;;
16391;SDS011;8305;-33.882;151.134;2023-12-14T04:43:35;2.72;;;0.80;;
16391;SDS011;8305;-33.882;151.134;2023-12-14T04:46:06;3.05;;;0.60;;
16391;SDS011;8305;-33.882;151.134;2023-12-14T04:48:37;2.42;;;0.60;;
16391;SDS011;8305;-33.882;151.134;2023-12-14T04:51:11;6.05;;;1.00;;
16391;SDS011;8305;-33.882;151.134;2023-12-14T04:53:42;3.55;;;0.80;;
16391;SDS011;8305;-33.882;151.134;2023-12-14T04:56:14;1.65;;;0.80;;
16391;SDS011;8305;-33.882;151.134;2023-12-14T04:58:45;1.42;;;0.80;;
16391;SDS011;8305;-33.882;151.134;2023-12-14T05:01:16;3.10;;;0.90;;
16391;SDS011;8305;-33.882;151.134;2023-12-14T05:03:46;1.00;;;0.70;;
16391;SDS011;8305;-33.882;151.134;2023-12-14T05:06:18;1.17;;;0.68;;
16391;SDS011;8305;-33.882;151.134;2023-12-14T05:08:52;2.28;;;0.60;;
16391;SDS011;8305;-33.882;151.134;2023-12-14T05:11:25;1.27;;;0.70;;
16391;SDS011;8305;-33.882;151.134;2023-12-14T05:13:56;0.95;;;0.60;;
16391;SDS011;8305;-33.882;151.134;2023-12-14T05:16:27;1.17;;;0.60;;
16391;SDS011;8305;-33.882;151.134;2023-12-14T05:18:58;2.33;;;0.82;;
16391;SDS011;8305;-33.882;151.134;2023-12-14T05:21:28;1.38;;;0.70;;
16391;SDS011;8305;-33.882;151.134;2023-12-14T05:23:59;3.15;;;0.80;;
16391;SDS011;8305;-33.882;151.134;2023-12-14T05:26:33;0.73;;;0.65;;
16391;SDS011;8305;-33.882;151.134;2023-12-14T05:29:04;1.45;;;0.75;;
16391;SDS011;8305;-33.882;151.134;2023-12-14T05:31:34;2.22;;;0.70;;
16391;SDS011;8305;-33.882;151.134;2023-12-14T05:34:05;2.90;;;0.70;;
16391;SDS011;8305;-33.882;151.134;2023-12-14T05:36:36;1.15;;;0.70;;
16391;SDS011;8305;-33.882;151.134;2023-12-14T05:39:07;1.77;;;0.77;;
16391;SDS011;8305;-33.882;151.134;2023-12-14T05:41:41;3.53;;;0.68;;
16391;SDS011;8305;-33.882;151.134;2023-12-14T05:44:12;0.95;;;0.65;;
16391;SDS011;8305;-33.882;151.134;2023-12-14T05:46:43;1.35;;;0.70;;
16391;SDS011;8305;-33.882;151.134;2023-12-14T05:49:14;1.50;;;0.68;;
16391;SDS011;8305;-33.882;151.134;2023-12-14T05:51:45;3.83;;;0.80;;
16391;SDS011;8305;-33.882;151.134;2023-12-14T05:54:16;2.92;;;0.68;;
16391;SDS011;8305;-33.882;151.134;2023-12-14T05:56:48;1.30;;;0.60;;
16391;SDS011;8305;-33.882;151.134;2023-12-14T05:59:19;1.60;;;0.70;;
16391;SDS011;8305;-33.882;151.134;2023-12-14T06:01:50;2.30;;;0.80;;
16391;SDS011;8305;-33.882;151.134;2023-12-14T06:04:27;1.77;;;0.80;;
16391;SDS011;8305;-33.882;151.134;2023-12-14T06:06:57;1.75;;;0.73;;
16391;SDS011;8305;-33.882;151.134;2023-12-14T06:09:28;2.70;;;0.80;;
16391;SDS011;8305;-33.882;151.134;2023-12-14T06:12:03;0.93;;;0.65;;
16391;SDS011;8305;-33.882;151.134;2023-12-14T06:14:34;1.85;;;0.70;;
16391;SDS011;8305;-33.882;151.134;2023-12-14T06:17:04;1.25;;;0.52;;
16391;SDS011;8305;-33.882;151.134;2023-12-14T06:19:35;1.20;;;0.80;;
16391;SDS011;8305;-33.882;151.134;2023-12-14T06:22:06;1.55;;;0.90;;
16391;SDS011;8305;-33.882;151.134;2023-12-14T06:24:37;4.78;;;0.85;;
16391;SDS011;8305;-33.882;151.134;2023-12-14T06:27:11;1.40;;;0.73;;
16391;SDS011;8305;-33.882;151.134;2023-12-14T06:29:42;2.65;;;0.80;;
16391;SDS011;8305;-33.882;151.134;2023-12-14T06:32:13;2.25;;;0.98;;
16391;SDS011;8305;-33.882;151.134;2023-12-14T06:34:44;3.35;;;0.90;;
16391;SDS011;8305;-33.882;151.134;2023-12-14T06:37:14;3.03;;;0.70;;
16391;SDS011;8305;-33.882;151.134;2023-12-14T06:39:45;4.28;;;0.75;;
16391;SDS011;8305;-33.882;151.134;2023-12-14T06:42:18;2.10;;;0.73;;
16391;SDS011;8305;-33.882;151.134;2023-12-14T06:44:48;1.58;;;0.77;;
16391;SDS011;8305;-33.882;151.134;2023-12-14T06:47:19;2.22;;;0.85;;
16391;SDS011;8305;-33.882;151.134;2023-12-14T06:49:50;1.55;;;0.70;;
16391;SDS011;8305;-33.882;151.134;2023-12-14T06:52:23;2.05;;;0.80;;
16391;SDS011;8305;-33.882;151.134;2023-12-14T06:54:53;1.20;;;0.55;;
16391;SDS011;8305;-33.882;151.134;2023-12-14T06:57:26;1.58;;;0.70;;
16391;SDS011;8305;-33.882;151.134;2023-12-14T06:59:57;3.20;;;0.90;;
16391;SDS011;8305;-33.882;151.134;2023-12-14T07:02:28;1.77;;;0.75;;
16391;SDS011;8305;-33.882;151.134;2023-12-14T07:04:59;1.58;;;0.70;;
16391;SDS011;8305;-33.882;151.134;2023-12-14T07:07:30;3.70;;;0.80;;
16391;SDS011;8305;-33.882;151.134;2023-12-14T07:10:00;1.73;;;0.60;;
16391;SDS011;8305;-33.882;151.134;2023-12-14T07:12:33;0.80;;;0.70;;
16391;SDS011;8305;-33.882;151.134;2023-12-14T07:15:04;1.40;;;0.70;;
16391;SDS011;8305;-33.882;151.134;2023-12-14T07:17:36;2.25;;;0.98;;
16391;SDS011;8305;-33.882;151.134;2023-12-14T07:20:07;1.45;;;0.73;;
16391;SDS011;8305;-33.882;151.134;2023-12-14T07:22:38;1.60;;;0.75;;
16391;SDS011;8305;-33.882;151.134;2023-12-14T07:25:09;1.35;;;0.75;;
16391;SDS011;8305;-33.882;151.134;2023-12-14T07:27:42;0.93;;;0.73;;
16391;SDS011;8305;-33.882;151.134;2023-12-14T07:30:17;2.83;;;0.80;;
16391;SDS011;8305;-33.882;151.134;2023-12-14T07:32:47;3.20;;;0.80;;
16391;SDS011;8305;-33.882;151.134;2023-12-14T07:35:18;2.35;;;0.95;;
16391;SDS011;8305;-33.882;151.134;2023-12-14T07:37:49;1.30;;;0.70;;
16391;SDS011;8305;-33.882;151.134;2023-12-14T07:40:20;1.90;;;1.00;;
16391;SDS011;8305;-33.882;151.134;2023-12-14T07:42:53;1.02;;;0.77;;
16391;SDS011;8305;-33.882;151.134;2023-12-14T07:45:23;2.35;;;0.70;;
16391;SDS011;8305;-33.882;151.134;2023-12-14T07:47:54;1.10;;;0.90;;
16391;SDS011;8305;-33.882;151.134;2023-12-14T07:50:25;1.17;;;0.70;;
16391;SDS011;8305;-33.882;151.134;2023-12-14T07:52:56;1.55;;;0.85;;
16391;SDS011;8305;-33.882;151.134;2023-12-14T07:55:27;1.98;;;0.70;;
16391;SDS011;8305;-33.882;151.134;2023-12-14T07:58:00;1.52;;;0.80;;
16391;SDS011;8305;-33.882;151.134;2023-12-14T08:00:31;3.10;;;0.70;;
16391;SDS011;8305;-33.882;151.134;2023-12-14T08:03:02;2.35;;;0.70;;
16391;SDS011;8305;-33.882;151.134;2023-12-14T08:05:33;1.20;;;0.70;;
16391;SDS011;8305;-33.882;151.134;2023-12-14T08:08:04;1.77;;;0.65;;
16391;SDS011;8305;-33.882;151.134;2023-12-14T08:10:34;0.73;;;0.70;;
16391;SDS011;8305;-33.882;151.134;2023-12-14T08:13:07;1.80;;;0.70;;
16391;SDS011;8305;-33.882;151.134;2023-12-14T08:15:38;1.13;;;0.60;;
16391;SDS011;8305;-33.882;151.134;2023-12-14T08:18:09;1.75;;;0.60;;
16391;SDS011;8305;-33.882;151.134;2023-12-14T08:20:39;1.20;;;0.60;;
16391;SDS011;8305;-33.882;151.134;2023-12-14T08:23:10;0.60;;;0.60;;
16391;SDS011;8305;-33.882;151.134;2023-12-14T08:25:41;1.48;;;0.73;;
16391;SDS011;8305;-33.882;151.134;2023-12-14T08:28:14;2.00;;;0.80;;
16391;SDS011;8305;-33.882;151.134;2023-12-14T08:30:44;1.88;;;0.70;;
16391;SDS011;8305;-33.882;151.134;2023-12-14T08:33:15;1.88;;;0.80;;
16391;SDS011;8305;-33.882;151.134;2023-12-14T08:35:46;1.35;;;0.60;;
16391;SDS011;8305;-33.882;151.134;2023-12-14T08:38:17;1.13;;;0.73;;
16391;SDS011;8305;-33.882;151.134;2023-12-14T08:40:48;3.65;;;0.80;;
16391;SDS011;8305;-33.882;151.134;2023-12-14T08:43:21;0.82;;;0.52;;
16391;SDS011;8305;-33.882;151.134;2023-12-14T08:45:52;1.35;;;0.80;;
16391;SDS011;8305;-33.882;151.134;2023-12-14T08:48:23;1.05;;;0.70;;
16391;SDS011;8305;-33.882;151.134;2023-12-14T08:50:54;2.50;;;1.00;;
16391;SDS011;8305;-33.882;151.134;2023-12-14T08:53:25;1.40;;;0.80;;
16391;SDS011;8305;-33.882;151.134;2023-12-14T08:55:56;1.48;;;0.60;;
16391;SDS011;8305;-33.882;151.134;2023-12-14T08:58:28;2.35;;;0.70;;
16391;SDS011;8305;-33.882;151.134;2023-12-14T09:00:59;1.33;;;0.85;;
16391;SDS011;8305;-33.882;151.134;2023-12-14T09:03:30;1.67;;;0.88;;
16391;SDS011;8305;-33.882;151.134;2023-12-14T09:06:01;0.80;;;0.80;;
16391;SDS011;8305;-33.882;151.134;2023-12-14T09:08:32;1.45;;;0.65;;
16391;SDS011;8305;-33.882;151.134;2023-12-14T09:11:03;1.15;;;0.80;;
16391;SDS011;8305;-33.882;151.134;2023-12-14T09:13:36;2.40;;;0.80;;
16391;SDS011;8305;-33.882;151.134;2023-12-14T09:16:07;1.73;;;0.88;;
16391;SDS011;8305;-33.882;151.134;2023-12-14T09:18:38;1.77;;;1.08;;
16391;SDS011;8305;-33.882;151.134;2023-12-14T09:21:09;2.17;;;1.00;;
16391;SDS011;8305;-33.882;151.134;2023-12-14T09:23:41;1.42;;;0.85;;
16391;SDS011;8305;-33.882;151.134;2023-12-14T09:26:11;1.70;;;0.93;;
16391;SDS011;8305;-33.882;151.134;2023-12-14T09:28:45;2.70;;;1.17;;
16391;SDS011;8305;-33.882;151.134;2023-12-14T09:31:16;1.95;;;1.23;;
16391;SDS011;8305;-33.882;151.134;2023-12-14T09:33:46;1.33;;;1.00;;
16391;SDS011;8305;-33.882;151.134;2023-12-14T09:36:18;3.65;;;1.13;;
16391;SDS011;8305;-33.882;151.134;2023-12-14T09:38:49;15.80;;;3.50;;
16391;SDS011;8305;-33.882;151.134;2023-12-14T09:41:20;17.08;;;3.97;;
16391;SDS011;8305;-33.882;151.134;2023-12-14T09:43:53;20.88;;;3.90;;
16391;SDS011;8305;-33.882;151.134;2023-12-14T09:46:25;25.38;;;4.07;;
16391;SDS011;8305;-33.882;151.134;2023-12-14T09:48:58;21.33;;;4.10;;
16391;SDS011;8305;-33.882;151.134;2023-12-14T09:51:30;22.45;;;4.10;;
16391;SDS011;8305;-33.882;151.134;2023-12-14T09:54:01;20.88;;;4.63;;
16391;SDS011;8305;-33.882;151.134;2023-12-14T09:56:32;19.45;;;3.88;;
16391;SDS011;8305;-33.882;151.134;2023-12-14T09:59:06;24.83;;;4.70;;
16391;SDS011;8305;-33.882;151.134;2023-12-14T10:01:37;23.88;;;4.47;;
16391;SDS011;8305;-33.882;151.134;2023-12-14T10:04:09;21.55;;;3.67;;
16391;SDS011;8305;-33.882;151.134;2023-12-14T10:06:41;23.17;;;4.38;;
16391;SDS011;8305;-33.882;151.134;2023-12-14T10:09:13;27.08;;;4.70;;
16391;SDS011;8305;-33.882;151.134;2023-12-14T10:11:44;20.33;;;4.97;;
16391;SDS011;8305;-33.882;151.134;2023-12-14T10:14:21;18.98;;;4.15;;
16391;SDS011;8305;-33.882;151.134;2023-12-14T10:16:54;22.40;;;4.40;;
16391;SDS011;8305;-33.882;151.134;2023-12-14T10:19:24;24.23;;;4.80;;
16391;SDS011;8305;-33.882;151.134;2023-12-14T10:21:55;24.30;;;4.75;;
16391;SDS011;8305;-33.882;151.134;2023-12-14T10:24:27;28.02;;;4.85;;
16391;SDS011;8305;-33.882;151.134;2023-12-14T10:27:03;26.95;;;4.93;;
16391;SDS011;8305;-33.882;151.134;2023-12-14T10:29:38;22.10;;;4.13;;
16391;SDS011;8305;-33.882;151.134;2023-12-14T10:32:11;25.77;;;4.55;;
16391;SDS011;8305;-33.882;151.134;2023-12-14T10:34:41;26.33;;;5.10;;
16391;SDS011;8305;-33.882;151.134;2023-12-14T10:37:12;28.45;;;5.00;;
16391;SDS011;8305;-33.882;151.134;2023-12-14T10:39:44;24.42;;;5.32;;
16391;SDS011;8305;-33.882;151.134;2023-12-14T10:42:17;22.35;;;3.85;;
16391;SDS011;8305;-33.882;151.134;2023-12-14T10:44:52;25.55;;;4.78;;
16391;SDS011;8305;-33.882;151.134;2023-12-14T10:47:24;21.83;;;3.92;;
16391;SDS011;8305;-33.882;151.134;2023-12-14T10:49:55;21.63;;;4.43;;
16391;SDS011;8305;-33.882;151.134;2023-12-14T10:52:29;24.17;;;4.05;;
16391;SDS011;8305;-33.882;151.134;2023-12-14T10:55:02;24.02;;;4.43;;
16391;SDS011;8305;-33.882;151.134;2023-12-14T10:57:36;24.38;;;4.15;;
16391;SDS011;8305;-33.882;151.134;2023-12-14T11:00:10;24.13;;;3.50;;
16391;SDS011;8305;-33.882;151.134;2023-12-14T11:02:42;20.70;;;3.55;;
16391;SDS011;8305;-33.882;151.134;2023-12-14T11:05:16;19.40;;;4.10;;
16391;SDS011;8305;-33.882;151.134;2023-12-14T11:07:53;23.13;;;4.07;;
16391;SDS011;8305;-33.882;151.134;2023-12-14T11:10:27;23.45;;;4.00;;
16391;SDS011;8305;-33.882;151.134;2023-12-14T11:13:08;27.60;;;4.15;;
16391;SDS011;8305;-33.882;151.134;2023-12-14T11:15:45;24.50;;;3.90;;
16391;SDS011;8305;-33.882;151.134;2023-12-14T11:18:24;23.85;;;3.88;;
16391;SDS011;8305;-33.882;151.134;2023-12-14T11:20:57;21.67;;;3.50;;
16391;SDS011;8305;-33.882;151.134;2023-12-14T11:23:29;26.42;;;4.22;;
16391;SDS011;8305;-33.882;151.134;2023-12-14T11:26:02;24.05;;;3.88;;
16391;SDS011;8305;-33.882;151.134;2023-12-14T11:28:34;25.75;;;3.83;;
16391;SDS011;8305;-33.882;151.134;2023-12-14T11:31:11;19.92;;;4.00;;
16391;SDS011;8305;-33.882;151.134;2023-12-14T11:33:42;30.80;;;3.92;;
16391;SDS011;8305;-33.882;151.134;2023-12-14T11:36:14;21.13;;;4.13;;
16391;SDS011;8305;-33.882;151.134;2023-12-14T11:38:44;26.38;;;3.90;;
16391;SDS011;8305;-33.882;151.134;2023-12-14T11:41:16;23.95;;;4.45;;
16391;SDS011;8305;-33.882;151.134;2023-12-14T11:43:47;23.65;;;3.80;;
16391;SDS011;8305;-33.882;151.134;2023-12-14T11:46:20;24.25;;;4.60;;
16391;SDS011;8305;-33.882;151.134;2023-12-14T11:48:50;26.40;;;3.75;;
16391;SDS011;8305;-33.882;151.134;2023-12-14T11:51:21;26.95;;;3.95;;
16391;SDS011;8305;-33.882;151.134;2023-12-14T11:53:52;28.58;;;4.03;;
16391;SDS011;8305;-33.882;151.134;2023-12-14T11:56:24;23.67;;;4.07;;
16391;SDS011;8305;-33.882;151.134;2023-12-14T11:58:57;20.02;;;3.50;;
16391;SDS011;8305;-33.882;151.134;2023-12-14T12:01:29;19.30;;;3.78;;
16391;SDS011;8305;-33.882;151.134;2023-12-14T12:04:08;20.48;;;3.60;;
16391;SDS011;8305;-33.882;151.134;2023-12-14T12:06:39;23.17;;;3.72;;
16391;SDS011;8305;-33.882;151.134;2023-12-14T12:09:10;24.55;;;3.92;;
16391;SDS011;8305;-33.882;151.134;2023-12-14T12:11:41;18.33;;;3.53;;
16391;SDS011;8305;-33.882;151.134;2023-12-14T12:14:12;25.83;;;3.70;;
16391;SDS011;8305;-33.882;151.134;2023-12-14T12:16:44;22.52;;;3.97;;
16391;SDS011;8305;-33.882;151.134;2023-12-14T12:19:16;23.63;;;3.63;;
16391;SDS011;8305;-33.882;151.134;2023-12-14T12:21:47;21.88;;;3.90;;
16391;SDS011;8305;-33.882;151.134;2023-12-14T12:24:17;17.88;;;3.92;;
16391;SDS011;8305;-33.882;151.134;2023-12-14T12:26:49;24.67;;;3.80;;
16391;SDS011;8305;-33.882;151.134;2023-12-14T12:29:19;19.92;;;3.40;;
16391;SDS011;8305;-33.882;151.134;2023-12-14T12:31:52;22.63;;;3.40;;
16391;SDS011;8305;-33.882;151.134;2023-12-14T12:34:23;21.45;;;4.03;;
16391;SDS011;8305;-33.882;151.134;2023-12-14T12:36:54;17.92;;;3.80;;
16391;SDS011;8305;-33.882;151.134;2023-12-14T12:39:25;21.67;;;3.85;;
16391;SDS011;8305;-33.882;151.134;2023-12-14T12:41:56;20.80;;;3.58;;
16391;SDS011;8305;-33.882;151.134;2023-12-14T12:44:27;15.45;;;3.28;;
16391;SDS011;8305;-33.882;151.134;2023-12-14T12:47:00;19.10;;;3.10;;
16391;SDS011;8305;-33.882;151.134;2023-12-14T12:49:31;21.50;;;3.67;;
16391;SDS011;8305;-33.882;151.134;2023-12-14T12:52:01;16.98;;;3.80;;
16391;SDS011;8305;-33.882;151.134;2023-12-14T12:54:32;18.83;;;3.35;;
16391;SDS011;8305;-33.882;151.134;2023-12-14T12:57:03;20.00;;;3.20;;
16391;SDS011;8305;-33.882;151.134;2023-12-14T12:59:34;16.15;;;3.38;;
16391;SDS011;8305;-33.882;151.134;2023-12-14T13:02:07;23.65;;;3.50;;
16391;SDS011;8305;-33.882;151.134;2023-12-14T13:04:37;16.30;;;2.92;;
16391;SDS011;8305;-33.882;151.134;2023-12-14T13:07:08;20.02;;;2.92;;
16391;SDS011;8305;-33.882;151.134;2023-12-14T13:09:39;15.10;;;3.20;;
16391;SDS011;8305;-33.882;151.134;2023-12-14T13:12:10;21.35;;;3.47;;
16391;SDS011;8305;-33.882;151.134;2023-12-14T13:14:41;17.08;;;3.08;;
16391;SDS011;8305;-33.882;151.134;2023-12-14T13:17:14;17.70;;;2.80;;
16391;SDS011;8305;-33.882;151.134;2023-12-14T13:19:44;19.20;;;2.88;;
16391;SDS011;8305;-33.882;151.134;2023-12-14T13:22:15;18.92;;;3.25;;
16391;SDS011;8305;-33.882;151.134;2023-12-14T13:24:46;22.92;;;3.30;;
16391;SDS011;8305;-33.882;151.134;2023-12-14T13:27:17;15.35;;;2.92;;
16391;SDS011;8305;-33.882;151.134;2023-12-14T13:29:48;15.18;;;3.38;;
16391;SDS011;8305;-33.882;151.134;2023-12-14T13:32:23;17.45;;;3.97;;
16391;SDS011;8305;-33.882;151.134;2023-12-14T13:34:54;17.38;;;2.83;;
16391;SDS011;8305;-33.882;151.134;2023-12-14T13:37:25;19.98;;;3.03;;
16391;SDS011;8305;-33.882;151.134;2023-12-14T13:39:56;12.93;;;2.83;;
16391;SDS011;8305;-33.882;151.134;2023-12-14T13:42:26;17.85;;;3.20;;
16391;SDS011;8305;-33.882;151.134;2023-12-14T13:44:57;13.48;;;2.45;;
16391;SDS011;8305;-33.882;151.134;2023-12-14T13:47:30;16.60;;;2.55;;
16391;SDS011;8305;-33.882;151.134;2023-12-14T13:50:01;15.68;;;2.80;;
16391;SDS011;8305;-33.882;151.134;2023-12-14T13:52:31;17.65;;;3.13;;
16391;SDS011;8305;-33.882;151.134;2023-12-14T13:55:02;12.65;;;2.80;;
16391;SDS011;8305;-33.882;151.134;2023-12-14T13:57:36;11.85;;;2.70;;
16391;SDS011;8305;-33.882;151.134;2023-12-14T14:00:07;18.52;;;2.90;;
16391;SDS011;8305;-33.882;151.134;2023-12-14T14:02:40;14.80;;;2.67;;
16391;SDS011;8305;-33.882;151.134;2023-12-14T14:05:11;15.93;;;2.60;;
16391;SDS011;8305;-33.882;151.134;2023-12-14T14:07:42;20.02;;;3.40;;
16391;SDS011;8305;-33.882;151.134;2023-12-14T14:10:13;15.73;;;2.75;;
16391;SDS011;8305;-33.882;151.134;2023-12-14T14:12:44;14.70;;;2.60;;
16391;SDS011;8305;-33.882;151.134;2023-12-14T14:15:15;15.13;;;2.90;;
16391;SDS011;8305;-33.882;151.134;2023-12-14T14:17:48;21.50;;;2.97;;
16391;SDS011;8305;-33.882;151.134;2023-12-14T14:20:20;16.83;;;2.85;;
16391;SDS011;8305;-33.882;151.134;2023-12-14T14:22:51;16.30;;;2.97;;
16391;SDS011;8305;-33.882;151.134;2023-12-14T14:25:22;13.00;;;2.63;;
16391;SDS011;8305;-33.882;151.134;2023-12-14T14:27:55;13.15;;;2.83;;
16391;SDS011;8305;-33.882;151.134;2023-12-14T14:30:27;13.60;;;2.63;;
16391;SDS011;8305;-33.882;151.134;2023-12-14T14:32:59;14.68;;;2.60;;
16391;SDS011;8305;-33.882;151.134;2023-12-14T14:35:30;14.02;;;2.85;;
16391;SDS011;8305;-33.882;151.134;2023-12-14T14:38:03;17.80;;;2.92;;
16391;SDS011;8305;-33.882;151.134;2023-12-14T14:40:34;20.02;;;3.03;;